PWSweather.com
Personal Weather Stations
Station Observations
SMETHPA
Wilcat Hollow, Upper Marvin Creek, Smethport, PA 16749

Wilcat Hollow, Upper Marvin CreekSmethport, PA 16749

Lat: 41.7178, Lon: -78.5583

Elevation: 1644

Station Type: Davis Vantage Pro 2 Plus

http://www.mckeanweather.com

High Low Average
Temperature 21.0°F-6.1°C 2.8°F-16.2°C 12.0°F-11.1°C
Dew Point 19.5°F-6.9°C 0.1°F-17.7°C 9.9°F-12.3°C
Winds 10.0 mph 16.1 kmh Calm Calm 3.0 mph S4.8 kmh S
Wind Gusts 19.0 mph30.6 kmh 1.0 mph1.6 kmh 8.0 mph12.9 kmh
Humidity 94% 86% 91%
Pressure 30.64 in1037.6 mb 29.77 in1008.1 mb -
Precipitation 0.00 in0.0 mm - -
Hour Temp Dew Point Humidity Winds Wind Gusts Pressure Precip Precip Rate Daily Precip Total
12:00 AM 24.2°F-4.3°C 22.5°F-5.3°C 93% 6.0 mph NNE9.7 kmh NNE 11.0 mph17.7 kmh 29.80 in1009.1 mb 0.00 in0.0 mm 0.00 in0.0 mm 1.92 in48.8 mm
12:10 AM 23.6°F-4.7°C 21.9°F-5.6°C 93% 6.0 mph NNE9.7 kmh NNE 12.0 mph19.3 kmh 29.80 in1009.1 mb 0.00 in0.0 mm 0.00 in0.0 mm 1.92 in48.8 mm
12:20 AM 23.1°F-4.9°C 21.4°F-5.9°C 93% 7.0 mph NNE11.3 kmh NNE 14.0 mph22.5 kmh 29.80 in1009.1 mb 0.00 in0.0 mm 0.00 in0.0 mm 1.92 in48.8 mm
12:30 AM 22.5°F-5.3°C 20.8°F-6.2°C 93% 7.0 mph NE11.3 kmh NE 15.0 mph24.1 kmh 29.80 in1009.1 mb 0.00 in0.0 mm 0.00 in0.0 mm 1.92 in48.8 mm
12:40 AM 21.9°F-5.6°C 20.2°F-6.6°C 93% 7.0 mph NNE11.3 kmh NNE 14.0 mph22.5 kmh 29.80 in1009.1 mb 0.00 in0.0 mm 0.00 in0.0 mm 1.92 in48.8 mm
12:50 AM 21.6°F-5.8°C 20.1°F-6.6°C 94% 7.0 mph NE11.3 kmh NE 14.0 mph22.5 kmh 29.81 in1009.5 mb 0.00 in0.0 mm 0.00 in0.0 mm 1.92 in48.8 mm
01:00 AM 21.0°F-6.1°C 19.5°F-6.9°C 94% 7.0 mph NE11.3 kmh NE 17.0 mph27.4 kmh 29.79 in1008.8 mb 0.00 in0.0 mm 0.00 in0.0 mm 0.00 in0.0 mm
01:10 AM 20.5°F-6.4°C 19.0°F-7.2°C 94% 9.0 mph NE14.5 kmh NE 19.0 mph30.6 kmh 29.80 in1009.1 mb 0.00 in0.0 mm 0.00 in0.0 mm 0.00 in0.0 mm
01:20 AM 20.0°F-6.7°C 18.6°F-7.4°C 94% 7.0 mph NE11.3 kmh NE 17.0 mph27.4 kmh 29.78 in1008.5 mb 0.00 in0.0 mm 0.00 in0.0 mm 0.00 in0.0 mm
01:30 AM 19.7°F-6.8°C 18.3°F-7.6°C 94% 9.0 mph NE14.5 kmh NE 17.0 mph27.4 kmh 29.77 in1008.1 mb 0.00 in0.0 mm 0.00 in0.0 mm 0.00 in0.0 mm
01:40 AM 19.4°F-7.0°C 18.0°F-7.8°C 94% 10.0 mph NE16.1 kmh NE 18.0 mph29.0 kmh 29.78 in1008.5 mb 0.00 in0.0 mm 0.00 in0.0 mm 0.00 in0.0 mm
01:50 AM 19.2°F-7.1°C 17.8°F-7.9°C 94% 8.0 mph NE12.9 kmh NE 13.0 mph20.9 kmh 29.80 in1009.1 mb 0.00 in0.0 mm 0.00 in0.0 mm 0.00 in0.0 mm
02:00 AM 18.8°F-7.3°C 17.4°F-8.1°C 94% 6.0 mph NE9.7 kmh NE 11.0 mph17.7 kmh 29.80 in1009.1 mb 0.00 in0.0 mm 0.00 in0.0 mm 0.00 in0.0 mm
02:10 AM 18.6°F-7.4°C 17.2°F-8.2°C 94% 6.0 mph N9.7 kmh N 12.0 mph19.3 kmh 29.81 in1009.5 mb 0.00 in0.0 mm 0.00 in0.0 mm 0.00 in0.0 mm
02:20 AM 18.3°F-7.6°C 16.9°F-8.4°C 94% 5.0 mph NNE8.0 kmh NNE 12.0 mph19.3 kmh 29.80 in1009.1 mb 0.00 in0.0 mm 0.00 in0.0 mm 0.00 in0.0 mm
02:30 AM 18.0°F-7.8°C 16.6°F-8.6°C 94% 6.0 mph NNE9.7 kmh NNE 11.0 mph17.7 kmh 29.80 in1009.1 mb 0.00 in0.0 mm 0.00 in0.0 mm 0.00 in0.0 mm
02:40 AM 17.8°F-7.9°C 16.4°F-8.7°C 94% 6.0 mph N9.7 kmh N 10.0 mph16.1 kmh 29.80 in1009.1 mb 0.00 in0.0 mm 0.00 in0.0 mm 0.00 in0.0 mm
02:50 AM 17.8°F-7.9°C 16.4°F-8.7°C 94% 4.0 mph N6.4 kmh N 11.0 mph17.7 kmh 29.81 in1009.5 mb 0.00 in0.0 mm 0.00 in0.0 mm 0.00 in0.0 mm
03:00 AM 17.5°F-8.1°C 16.1°F-8.8°C 94% 5.0 mph NNE8.0 kmh NNE 15.0 mph24.1 kmh 29.82 in1009.8 mb 0.00 in0.0 mm 0.00 in0.0 mm 0.00 in0.0 mm
03:10 AM 17.1°F-8.3°C 15.7°F-9.1°C 94% 5.0 mph N8.0 kmh N 14.0 mph22.5 kmh 29.83 in1010.2 mb 0.00 in0.0 mm 0.00 in0.0 mm 0.00 in0.0 mm
03:20 AM 16.8°F-8.4°C 15.4°F-9.2°C 94% 5.0 mph NNE8.0 kmh NNE 10.0 mph16.1 kmh 29.83 in1010.2 mb 0.00 in0.0 mm 0.00 in0.0 mm 0.00 in0.0 mm
03:30 AM 16.6°F-8.6°C 15.2°F-9.3°C 94% 5.0 mph NE8.0 kmh NE 14.0 mph22.5 kmh 29.82 in1009.8 mb 0.00 in0.0 mm 0.00 in0.0 mm 0.00 in0.0 mm
03:40 AM 16.3°F-8.7°C 14.9°F-9.5°C 94% 5.0 mph NE8.0 kmh NE 12.0 mph19.3 kmh 29.84 in1010.5 mb 0.00 in0.0 mm 0.00 in0.0 mm 0.00 in0.0 mm
03:50 AM 16.2°F-8.8°C 14.8°F-9.6°C 94% 6.0 mph NE9.7 kmh NE 13.0 mph20.9 kmh 29.85 in1010.8 mb 0.00 in0.0 mm 0.00 in0.0 mm 0.00 in0.0 mm
04:00 AM 16.1°F-8.8°C 14.7°F-9.6°C 94% 4.0 mph NE6.4 kmh NE 10.0 mph16.1 kmh 29.85 in1010.8 mb 0.00 in0.0 mm 0.00 in0.0 mm 0.00 in0.0 mm
04:10 AM 15.9°F-8.9°C 14.2°F-9.9°C 93% 4.0 mph NE6.4 kmh NE 9.0 mph14.5 kmh 29.84 in1010.5 mb 0.00 in0.0 mm 0.00 in0.0 mm 0.00 in0.0 mm
04:20 AM 15.7°F-9.1°C 14.0°F-10.0°C 93% 4.0 mph NE6.4 kmh NE 13.0 mph20.9 kmh 29.84 in1010.5 mb 0.00 in0.0 mm 0.00 in0.0 mm 0.00 in0.0 mm
04:30 AM 15.4°F-9.2°C 13.7°F-10.2°C 93% 6.0 mph NE9.7 kmh NE 15.0 mph24.1 kmh 29.86 in1011.2 mb 0.00 in0.0 mm 0.00 in0.0 mm 0.00 in0.0 mm
04:40 AM 15.4°F-9.2°C 13.7°F-10.2°C 93% 6.0 mph NE9.7 kmh NE 11.0 mph17.7 kmh 29.87 in1011.5 mb 0.00 in0.0 mm 0.00 in0.0 mm 0.00 in0.0 mm
04:50 AM 15.3°F-9.3°C 13.6°F-10.2°C 93% 4.0 mph NE6.4 kmh NE 10.0 mph16.1 kmh 29.88 in1011.9 mb 0.00 in0.0 mm 0.00 in0.0 mm 0.00 in0.0 mm
05:00 AM 15.2°F-9.3°C 13.8°F-10.1°C 94% 3.0 mph NNE4.8 kmh NNE 8.0 mph12.9 kmh 29.88 in1011.9 mb 0.00 in0.0 mm 0.00 in0.0 mm 0.00 in0.0 mm
05:10 AM 15.2°F-9.3°C 13.8°F-10.1°C 94% Calm Calm 5.0 mph8.0 kmh 29.90 in1012.5 mb 0.00 in0.0 mm 0.00 in0.0 mm 0.00 in0.0 mm
05:20 AM 14.8°F-9.6°C 13.1°F-10.5°C 93% 1.0 mph SSW1.6 kmh SSW 6.0 mph9.7 kmh 29.92 in1013.2 mb 0.00 in0.0 mm 0.00 in0.0 mm 0.00 in0.0 mm
05:30 AM 14.3°F-9.8°C 12.6°F-10.8°C 93% 3.0 mph SSW4.8 kmh SSW 9.0 mph14.5 kmh 29.95 in1014.2 mb 0.00 in0.0 mm 0.00 in0.0 mm 0.00 in0.0 mm
05:40 AM 14.0°F-10.0°C 12.3°F-10.9°C 93% 3.0 mph SW4.8 kmh SW 7.0 mph11.3 kmh 29.95 in1014.2 mb 0.00 in0.0 mm 0.00 in0.0 mm 0.00 in0.0 mm
05:50 AM 13.8°F-10.1°C 12.2°F-11.0°C 93% 3.0 mph S4.8 kmh S 8.0 mph12.9 kmh 29.96 in1014.6 mb 0.00 in0.0 mm 0.00 in0.0 mm 0.00 in0.0 mm
06:00 AM 13.6°F-10.2°C 12.0°F-11.1°C 93% 2.0 mph S3.2 kmh S 6.0 mph9.7 kmh 29.96 in1014.6 mb 0.00 in0.0 mm 0.00 in0.0 mm 0.00 in0.0 mm
06:10 AM 13.4°F-10.3°C 11.8°F-11.2°C 93% 2.0 mph SW3.2 kmh SW 7.0 mph11.3 kmh 29.98 in1015.2 mb 0.00 in0.0 mm 0.00 in0.0 mm 0.00 in0.0 mm
06:20 AM 13.1°F-10.5°C 11.5°F-11.4°C 93% 2.0 mph SW3.2 kmh SW 6.0 mph9.7 kmh 30.00 in1015.9 mb 0.00 in0.0 mm 0.00 in0.0 mm 0.00 in0.0 mm
06:30 AM 12.8°F-10.7°C 11.2°F-11.6°C 93% 3.0 mph SW4.8 kmh SW 9.0 mph14.5 kmh 30.00 in1015.9 mb 0.00 in0.0 mm 0.00 in0.0 mm 0.00 in0.0 mm
06:40 AM 12.6°F-10.8°C 11.0°F-11.7°C 93% 1.0 mph SW1.6 kmh SW 4.0 mph6.4 kmh 30.01 in1016.3 mb 0.00 in0.0 mm 0.00 in0.0 mm 0.00 in0.0 mm
06:50 AM 12.6°F-10.8°C 11.0°F-11.7°C 93% 1.0 mph SW1.6 kmh SW 4.0 mph6.4 kmh 30.01 in1016.3 mb 0.00 in0.0 mm 0.00 in0.0 mm 0.00 in0.0 mm
07:00 AM 12.4°F-10.9°C 10.8°F-11.8°C 93% 2.0 mph N3.2 kmh N 7.0 mph11.3 kmh 30.02 in1016.6 mb 0.00 in0.0 mm 0.00 in0.0 mm 0.00 in0.0 mm
07:10 AM 12.3°F-10.9°C 10.7°F-11.8°C 93% 2.0 mph E3.2 kmh E 4.0 mph6.4 kmh 30.02 in1016.6 mb 0.00 in0.0 mm 0.00 in0.0 mm 0.00 in0.0 mm
07:20 AM 12.2°F-11.0°C 10.6°F-11.9°C 93% 1.0 mph E1.6 kmh E 4.0 mph6.4 kmh 30.03 in1016.9 mb 0.00 in0.0 mm 0.00 in0.0 mm 0.00 in0.0 mm
07:30 AM 12.0°F-11.1°C 10.4°F-12.0°C 93% 3.0 mph NE4.8 kmh NE 9.0 mph14.5 kmh 30.04 in1017.3 mb 0.00 in0.0 mm 0.00 in0.0 mm 0.00 in0.0 mm
07:40 AM 11.8°F-11.2°C 9.9°F-12.3°C 92% 3.0 mph NE4.8 kmh NE 7.0 mph11.3 kmh 30.04 in1017.3 mb 0.00 in0.0 mm 0.00 in0.0 mm 0.00 in0.0 mm
07:50 AM 11.7°F-11.3°C 9.8°F-12.3°C 92% 2.0 mph W3.2 kmh W 10.0 mph16.1 kmh 30.05 in1017.6 mb 0.00 in0.0 mm 0.00 in0.0 mm 0.00 in0.0 mm
08:00 AM 11.5°F-11.4°C 9.6°F-12.4°C 92% 2.0 mph WSW3.2 kmh WSW 3.0 mph4.8 kmh 30.06 in1017.9 mb 0.00 in0.0 mm 0.00 in0.0 mm 0.00 in0.0 mm
08:10 AM 11.4°F-11.4°C 9.5°F-12.5°C 92% 1.0 mph W1.6 kmh W 7.0 mph11.3 kmh 30.07 in1018.3 mb 0.00 in0.0 mm 0.00 in0.0 mm 0.00 in0.0 mm
08:20 AM 11.0°F-11.7°C 9.1°F-12.7°C 92% 3.0 mph N4.8 kmh N 9.0 mph14.5 kmh 30.08 in1018.6 mb 0.00 in0.0 mm 0.00 in0.0 mm 0.00 in0.0 mm
08:30 AM 10.9°F-11.7°C 9.0°F-12.8°C 92% 2.0 mph N3.2 kmh N 7.0 mph11.3 kmh 30.08 in1018.6 mb 0.00 in0.0 mm 0.00 in0.0 mm 0.00 in0.0 mm
08:40 AM 10.7°F-11.8°C 8.8°F-12.9°C 92% 3.0 mph N4.8 kmh N 11.0 mph17.7 kmh 30.09 in1019.0 mb 0.00 in0.0 mm 0.00 in0.0 mm 0.00 in0.0 mm
08:50 AM 10.6°F-11.9°C 8.7°F-12.9°C 92% 3.0 mph N4.8 kmh N 4.0 mph6.4 kmh 30.10 in1019.3 mb 0.00 in0.0 mm 0.00 in0.0 mm 0.00 in0.0 mm
09:00 AM 10.7°F-11.8°C 8.8°F-12.9°C 92% 2.0 mph N3.2 kmh N 5.0 mph8.0 kmh 30.12 in1020.0 mb 0.00 in0.0 mm 0.00 in0.0 mm 0.00 in0.0 mm
09:10 AM 10.8°F-11.8°C 8.9°F-12.8°C 92% 2.0 mph W3.2 kmh W 3.0 mph4.8 kmh 30.13 in1020.3 mb 0.00 in0.0 mm 0.00 in0.0 mm 0.00 in0.0 mm
09:20 AM 10.9°F-11.7°C 9.0°F-12.8°C 92% 1.0 mph WSW1.6 kmh WSW 9.0 mph14.5 kmh 30.15 in1021.0 mb 0.00 in0.0 mm 0.00 in0.0 mm 0.00 in0.0 mm
09:30 AM 11.1°F-11.6°C 9.2°F-12.7°C 92% 3.0 mph SW4.8 kmh SW 7.0 mph11.3 kmh 30.16 in1021.3 mb 0.00 in0.0 mm 0.00 in0.0 mm 0.00 in0.0 mm
09:40 AM 11.1°F-11.6°C 9.2°F-12.7°C 92% 2.0 mph WSW3.2 kmh WSW 6.0 mph9.7 kmh 30.17 in1021.7 mb 0.00 in0.0 mm 0.00 in0.0 mm 0.00 in0.0 mm
09:50 AM 11.2°F-11.6°C 9.3°F-12.6°C 92% 2.0 mph WNW3.2 kmh WNW 6.0 mph9.7 kmh 30.17 in1021.7 mb 0.00 in0.0 mm 0.00 in0.0 mm 0.00 in0.0 mm
10:00 AM 11.2°F-11.6°C 9.3°F-12.6°C 92% 2.0 mph WSW3.2 kmh WSW 7.0 mph11.3 kmh 30.18 in1022.0 mb 0.00 in0.0 mm 0.00 in0.0 mm 0.00 in0.0 mm
10:10 AM 11.4°F-11.4°C 9.5°F-12.5°C 92% 3.0 mph WSW4.8 kmh WSW 6.0 mph9.7 kmh 30.18 in1022.0 mb 0.00 in0.0 mm 0.00 in0.0 mm 0.00 in0.0 mm
10:20 AM 11.6°F-11.3°C 9.7°F-12.4°C 92% 2.0 mph WSW3.2 kmh WSW 4.0 mph6.4 kmh 30.19 in1022.4 mb 0.00 in0.0 mm 0.00 in0.0 mm 0.00 in0.0 mm
10:30 AM 11.7°F-11.3°C 9.8°F-12.3°C 92% 2.0 mph SW3.2 kmh SW 5.0 mph8.0 kmh 30.20 in1022.7 mb 0.00 in0.0 mm 0.00 in0.0 mm 0.00 in0.0 mm
10:40 AM 12.1°F-11.1°C 10.2°F-12.1°C 92% 2.0 mph WSW3.2 kmh WSW 8.0 mph12.9 kmh 30.21 in1023.0 mb 0.00 in0.0 mm 0.00 in0.0 mm 0.00 in0.0 mm
10:50 AM 12.1°F-11.1°C 10.2°F-12.1°C 92% 3.0 mph WSW4.8 kmh WSW 10.0 mph16.1 kmh 30.21 in1023.0 mb 0.00 in0.0 mm 0.00 in0.0 mm 0.00 in0.0 mm
11:00 AM 12.3°F-10.9°C 10.4°F-12.0°C 92% 2.0 mph W3.2 kmh W 7.0 mph11.3 kmh 30.22 in1023.4 mb 0.00 in0.0 mm 0.00 in0.0 mm 0.00 in0.0 mm
11:10 AM 12.5°F-10.8°C 10.6°F-11.9°C 92% 2.0 mph W3.2 kmh W 6.0 mph9.7 kmh 30.22 in1023.4 mb 0.00 in0.0 mm 0.00 in0.0 mm 0.00 in0.0 mm
11:20 AM 12.4°F-10.9°C 10.5°F-11.9°C 92% 2.0 mph W3.2 kmh W 9.0 mph14.5 kmh 30.23 in1023.7 mb 0.00 in0.0 mm 0.00 in0.0 mm 0.00 in0.0 mm
11:30 AM 12.3°F-10.9°C 10.4°F-12.0°C 92% 4.0 mph WNW6.4 kmh WNW 12.0 mph19.3 kmh 30.24 in1024.0 mb 0.00 in0.0 mm 0.00 in0.0 mm 0.00 in0.0 mm
11:40 AM 12.6°F-10.8°C 10.7°F-11.8°C 92% 3.0 mph W4.8 kmh W 6.0 mph9.7 kmh 30.24 in1024.0 mb 0.00 in0.0 mm 0.00 in0.0 mm 0.00 in0.0 mm
11:50 AM 13.2°F-10.4°C 11.3°F-11.5°C 92% 2.0 mph SW3.2 kmh SW 5.0 mph8.0 kmh 30.25 in1024.4 mb 0.00 in0.0 mm 0.00 in0.0 mm 0.00 in0.0 mm
12:00 PM 13.5°F-10.3°C 11.6°F-11.3°C 92% 1.0 mph SW1.6 kmh SW 5.0 mph8.0 kmh 30.26 in1024.7 mb 0.00 in0.0 mm 0.00 in0.0 mm 0.00 in0.0 mm
12:10 PM 13.8°F-10.1°C 11.9°F-11.2°C 92% 1.0 mph SSE1.6 kmh SSE 4.0 mph6.4 kmh 30.27 in1025.1 mb 0.00 in0.0 mm 0.00 in0.0 mm 0.00 in0.0 mm
12:20 PM 13.7°F-10.2°C 11.6°F-11.3°C 91% 2.0 mph S3.2 kmh S 6.0 mph9.7 kmh 30.26 in1024.7 mb 0.00 in0.0 mm 0.00 in0.0 mm 0.00 in0.0 mm
12:40 PM 14.1°F-9.9°C 12.0°F-11.1°C 91% 3.0 mph W4.8 kmh W 13.0 mph20.9 kmh 30.26 in1024.7 mb 0.00 in0.0 mm 0.00 in0.0 mm 0.00 in0.0 mm
12:50 PM 14.6°F-9.7°C 12.5°F-10.8°C 91% 5.0 mph WSW8.0 kmh WSW 12.0 mph19.3 kmh 30.26 in1024.7 mb 0.00 in0.0 mm 0.00 in0.0 mm 0.00 in0.0 mm
01:00 PM 14.8°F-9.6°C 12.6°F-10.8°C 91% 4.0 mph WSW6.4 kmh WSW 9.0 mph14.5 kmh 30.26 in1024.7 mb 0.00 in0.0 mm 0.00 in0.0 mm 0.00 in0.0 mm
01:10 PM 13.9°F-10.1°C 11.5°F-11.4°C 90% 3.0 mph N4.8 kmh N 10.0 mph16.1 kmh 30.26 in1024.7 mb 0.00 in0.0 mm 0.00 in0.0 mm 0.00 in0.0 mm
01:20 PM 14.1°F-9.9°C 12.0°F-11.1°C 91% 3.0 mph NW4.8 kmh NW 6.0 mph9.7 kmh 30.27 in1025.1 mb 0.00 in0.0 mm 0.00 in0.0 mm 0.00 in0.0 mm
01:30 PM 14.1°F-9.9°C 11.7°F-11.3°C 90% 3.0 mph ESE4.8 kmh ESE 11.0 mph17.7 kmh 30.27 in1025.1 mb 0.00 in0.0 mm 0.00 in0.0 mm 0.00 in0.0 mm
01:40 PM 13.7°F-10.2°C 11.3°F-11.5°C 90% 3.0 mph WSW4.8 kmh WSW 9.0 mph14.5 kmh 30.27 in1025.1 mb 0.00 in0.0 mm 0.00 in0.0 mm 0.00 in0.0 mm
01:50 PM 13.9°F-10.1°C 11.5°F-11.4°C 90% 5.0 mph WSW8.0 kmh WSW 16.0 mph25.7 kmh 30.27 in1025.1 mb 0.00 in0.0 mm 0.00 in0.0 mm 0.00 in0.0 mm
02:00 PM 14.4°F-9.8°C 12.3°F-10.9°C 91% 4.0 mph WSW6.4 kmh WSW 11.0 mph17.7 kmh 30.27 in1025.1 mb 0.00 in0.0 mm 0.00 in0.0 mm 0.00 in0.0 mm
02:10 PM 14.5°F-9.7°C 12.1°F-11.1°C 90% 5.0 mph W8.0 kmh W 12.0 mph19.3 kmh 30.29 in1025.7 mb 0.00 in0.0 mm 0.00 in0.0 mm 0.00 in0.0 mm
02:20 PM 14.5°F-9.7°C 12.1°F-11.1°C 90% 4.0 mph N6.4 kmh N 12.0 mph19.3 kmh 30.29 in1025.7 mb 0.00 in0.0 mm 0.00 in0.0 mm 0.00 in0.0 mm
02:30 PM 14.1°F-9.9°C 11.7°F-11.3°C 90% 5.0 mph N8.0 kmh N 10.0 mph16.1 kmh 30.30 in1026.1 mb 0.00 in0.0 mm 0.00 in0.0 mm 0.00 in0.0 mm
02:40 PM 14.5°F-9.7°C 12.1°F-11.1°C 90% 4.0 mph NNE6.4 kmh NNE 13.0 mph20.9 kmh 30.30 in1026.1 mb 0.00 in0.0 mm 0.00 in0.0 mm 0.00 in0.0 mm
02:50 PM 15.3°F-9.3°C 12.9°F-10.6°C 90% 4.0 mph NE6.4 kmh NE 9.0 mph14.5 kmh 30.31 in1026.4 mb 0.00 in0.0 mm 0.00 in0.0 mm 0.00 in0.0 mm
03:00 PM 15.4°F-9.2°C 12.7°F-10.7°C 89% 3.0 mph WSW4.8 kmh WSW 9.0 mph14.5 kmh 30.32 in1026.8 mb 0.00 in0.0 mm 0.00 in0.0 mm 0.00 in0.0 mm
03:10 PM 16.3°F-8.7°C 13.9°F-10.1°C 90% 3.0 mph WSW4.8 kmh WSW 9.0 mph14.5 kmh 30.32 in1026.8 mb 0.00 in0.0 mm 0.00 in0.0 mm 0.00 in0.0 mm
03:20 PM 15.3°F-9.3°C 12.4°F-10.9°C 88% 3.0 mph W4.8 kmh W 14.0 mph22.5 kmh 30.33 in1027.1 mb 0.00 in0.0 mm 0.00 in0.0 mm 0.00 in0.0 mm
03:30 PM 14.3°F-9.8°C 11.4°F-11.4°C 88% 4.0 mph WSW6.4 kmh WSW 13.0 mph20.9 kmh 30.34 in1027.4 mb 0.00 in0.0 mm 0.00 in0.0 mm 0.00 in0.0 mm
03:40 PM 13.7°F-10.2°C 10.8°F-11.8°C 88% 4.0 mph SW6.4 kmh SW 11.0 mph17.7 kmh 30.35 in1027.8 mb 0.00 in0.0 mm 0.00 in0.0 mm 0.00 in0.0 mm
03:50 PM 13.2°F-10.4°C 10.3°F-12.1°C 88% 4.0 mph WSW6.4 kmh WSW 14.0 mph22.5 kmh 30.36 in1028.1 mb 0.00 in0.0 mm 0.00 in0.0 mm 0.00 in0.0 mm
04:00 PM 12.7°F-10.7°C 9.6°F-12.4°C 87% 4.0 mph WSW6.4 kmh WSW 8.0 mph12.9 kmh 30.37 in1028.4 mb 0.00 in0.0 mm 0.00 in0.0 mm 0.00 in0.0 mm
04:10 PM 12.8°F-10.7°C 9.9°F-12.3°C 88% 3.0 mph WSW4.8 kmh WSW 10.0 mph16.1 kmh 30.37 in1028.4 mb 0.00 in0.0 mm 0.00 in0.0 mm 0.00 in0.0 mm
04:20 PM 13.0°F-10.6°C 10.1°F-12.2°C 88% 4.0 mph W6.4 kmh W 12.0 mph19.3 kmh 30.38 in1028.8 mb 0.00 in0.0 mm 0.00 in0.0 mm 0.00 in0.0 mm
04:30 PM 13.1°F-10.5°C 10.2°F-12.1°C 88% 5.0 mph WSW8.0 kmh WSW 15.0 mph24.1 kmh 30.39 in1029.1 mb 0.00 in0.0 mm 0.00 in0.0 mm 0.00 in0.0 mm
04:40 PM 13.2°F-10.4°C 10.3°F-12.1°C 88% 5.0 mph W8.0 kmh W 13.0 mph20.9 kmh 30.40 in1029.5 mb 0.00 in0.0 mm 0.00 in0.0 mm 0.00 in0.0 mm
04:50 PM 13.0°F-10.6°C 10.1°F-12.2°C 88% 3.0 mph NW4.8 kmh NW 6.0 mph9.7 kmh 30.41 in1029.8 mb 0.00 in0.0 mm 0.00 in0.0 mm 0.00 in0.0 mm
05:00 PM 12.9°F-10.6°C 10.3°F-12.1°C 89% 3.0 mph WSW4.8 kmh WSW 11.0 mph17.7 kmh 30.42 in1030.1 mb 0.00 in0.0 mm 0.00 in0.0 mm 0.00 in0.0 mm
05:10 PM 12.4°F-10.9°C 9.5°F-12.5°C 88% 6.0 mph WSW9.7 kmh WSW 15.0 mph24.1 kmh 30.43 in1030.5 mb 0.00 in0.0 mm 0.00 in0.0 mm 0.00 in0.0 mm
05:20 PM 11.9°F-11.2°C 8.8°F-12.9°C 87% 4.0 mph WSW6.4 kmh WSW 10.0 mph16.1 kmh 30.43 in1030.5 mb 0.00 in0.0 mm 0.00 in0.0 mm 0.00 in0.0 mm
05:30 PM 11.2°F-11.6°C 7.8°F-13.4°C 86% 5.0 mph SW8.0 kmh SW 11.0 mph17.7 kmh 30.44 in1030.8 mb 0.00 in0.0 mm 0.00 in0.0 mm 0.00 in0.0 mm
05:40 PM 10.6°F-11.9°C 7.2°F-13.8°C 86% 5.0 mph WSW8.0 kmh WSW 12.0 mph19.3 kmh 30.44 in1030.8 mb 0.00 in0.0 mm 0.00 in0.0 mm 0.00 in0.0 mm
05:50 PM 10.0°F-12.2°C 6.6°F-14.1°C 86% 3.0 mph W4.8 kmh W 5.0 mph8.0 kmh 30.45 in1031.2 mb 0.00 in0.0 mm 0.00 in0.0 mm 0.00 in0.0 mm
06:00 PM 9.7°F-12.4°C 6.6°F-14.1°C 87% 3.0 mph WSW4.8 kmh WSW 10.0 mph16.1 kmh 30.45 in1031.2 mb 0.00 in0.0 mm 0.00 in0.0 mm 0.00 in0.0 mm
06:10 PM 9.3°F-12.6°C 6.0°F-14.4°C 86% 3.0 mph SSW4.8 kmh SSW 5.0 mph8.0 kmh 30.46 in1031.5 mb 0.00 in0.0 mm 0.00 in0.0 mm 0.00 in0.0 mm
06:20 PM 9.0°F-12.8°C 5.9°F-14.5°C 87% 2.0 mph SW3.2 kmh SW 6.0 mph9.7 kmh 30.47 in1031.8 mb 0.00 in0.0 mm 0.00 in0.0 mm 0.00 in0.0 mm
06:30 PM 8.9°F-12.8°C 5.8°F-14.6°C 87% 2.0 mph SW3.2 kmh SW 9.0 mph14.5 kmh 30.48 in1032.2 mb 0.00 in0.0 mm 0.00 in0.0 mm 0.00 in0.0 mm
06:40 PM 8.7°F-12.9°C 5.6°F-14.7°C 87% 2.0 mph WSW3.2 kmh WSW 4.0 mph6.4 kmh 30.48 in1032.2 mb 0.00 in0.0 mm 0.00 in0.0 mm 0.00 in0.0 mm
06:50 PM 8.5°F-13.1°C 5.7°F-14.6°C 88% 1.0 mph WSW1.6 kmh WSW 3.0 mph4.8 kmh 30.48 in1032.2 mb 0.00 in0.0 mm 0.00 in0.0 mm 0.00 in0.0 mm
07:00 PM 8.6°F-13.0°C 5.8°F-14.6°C 88% 2.0 mph WSW3.2 kmh WSW 5.0 mph8.0 kmh 30.49 in1032.5 mb 0.00 in0.0 mm 0.00 in0.0 mm 0.00 in0.0 mm
07:10 PM 8.5°F-13.1°C 5.7°F-14.6°C 88% 1.0 mph WSW1.6 kmh WSW 4.0 mph6.4 kmh 30.49 in1032.5 mb 0.00 in0.0 mm 0.00 in0.0 mm 0.00 in0.0 mm
07:20 PM 8.3°F-13.2°C 5.5°F-14.7°C 88% 1.0 mph WSW1.6 kmh WSW 4.0 mph6.4 kmh 30.50 in1032.8 mb 0.00 in0.0 mm 0.00 in0.0 mm 0.00 in0.0 mm
07:30 PM 8.0°F-13.3°C 5.2°F-14.9°C 88% 1.0 mph W1.6 kmh W 9.0 mph14.5 kmh 30.50 in1032.8 mb 0.00 in0.0 mm 0.00 in0.0 mm 0.00 in0.0 mm
07:40 PM 7.8°F-13.4°C 5.0°F-15.0°C 88% 1.0 mph WNW1.6 kmh WNW 3.0 mph4.8 kmh 30.51 in1033.2 mb 0.00 in0.0 mm 0.00 in0.0 mm 0.00 in0.0 mm
07:50 PM 7.7°F-13.5°C 4.9°F-15.1°C 88% 1.0 mph WNW1.6 kmh WNW 3.0 mph4.8 kmh 30.51 in1033.2 mb 0.00 in0.0 mm 0.00 in0.0 mm 0.00 in0.0 mm
08:00 PM 7.5°F-13.6°C 4.7°F-15.2°C 88% 1.0 mph WNW1.6 kmh WNW 2.0 mph3.2 kmh 30.51 in1033.2 mb 0.00 in0.0 mm 0.00 in0.0 mm 0.00 in0.0 mm
08:10 PM 7.4°F-13.7°C 4.8°F-15.1°C 89% Calm Calm 4.0 mph6.4 kmh 30.52 in1033.5 mb 0.00 in0.0 mm 0.00 in0.0 mm 0.00 in0.0 mm
08:20 PM 7.6°F-13.6°C 5.0°F-15.0°C 89% 2.0 mph W3.2 kmh W 5.0 mph8.0 kmh 30.53 in1033.9 mb 0.00 in0.0 mm 0.00 in0.0 mm 0.00 in0.0 mm
08:30 PM 7.7°F-13.5°C 5.1°F-14.9°C 89% 1.0 mph W1.6 kmh W 3.0 mph4.8 kmh 30.53 in1033.9 mb 0.00 in0.0 mm 0.00 in0.0 mm 0.00 in0.0 mm
08:40 PM 7.7°F-13.5°C 5.1°F-14.9°C 89% 1.0 mph W1.6 kmh W 4.0 mph6.4 kmh 30.53 in1033.9 mb 0.00 in0.0 mm 0.00 in0.0 mm 0.00 in0.0 mm
08:50 PM 7.7°F-13.5°C 5.1°F-14.9°C 89% 1.0 mph W1.6 kmh W 3.0 mph4.8 kmh 30.54 in1034.2 mb 0.00 in0.0 mm 0.00 in0.0 mm 0.00 in0.0 mm
09:00 PM 7.6°F-13.6°C 5.0°F-15.0°C 89% 1.0 mph W1.6 kmh W 3.0 mph4.8 kmh 30.55 in1034.5 mb 0.00 in0.0 mm 0.00 in0.0 mm 0.00 in0.0 mm
09:10 PM 7.7°F-13.5°C 5.1°F-14.9°C 89% 1.0 mph WSW1.6 kmh WSW 5.0 mph8.0 kmh 30.55 in1034.5 mb 0.00 in0.0 mm 0.00 in0.0 mm 0.00 in0.0 mm
09:20 PM 7.7°F-13.5°C 5.1°F-14.9°C 89% 2.0 mph WSW3.2 kmh WSW 5.0 mph8.0 kmh 30.56 in1034.9 mb 0.00 in0.0 mm 0.00 in0.0 mm 0.00 in0.0 mm
09:30 PM 7.8°F-13.4°C 5.5°F-14.7°C 90% 1.0 mph WSW1.6 kmh WSW 8.0 mph12.9 kmh 30.56 in1034.9 mb 0.00 in0.0 mm 0.00 in0.0 mm 0.00 in0.0 mm
09:40 PM 7.8°F-13.4°C 5.5°F-14.7°C 90% 2.0 mph S3.2 kmh S 7.0 mph11.3 kmh 30.57 in1035.2 mb 0.00 in0.0 mm 0.00 in0.0 mm 0.00 in0.0 mm
09:50 PM 7.9°F-13.4°C 5.6°F-14.7°C 90% 1.0 mph S1.6 kmh S 3.0 mph4.8 kmh 30.57 in1035.2 mb 0.00 in0.0 mm 0.00 in0.0 mm 0.00 in0.0 mm
10:00 PM 8.0°F-13.3°C 5.7°F-14.6°C 90% 1.0 mph S1.6 kmh S 4.0 mph6.4 kmh 30.57 in1035.2 mb 0.00 in0.0 mm 0.00 in0.0 mm 0.00 in0.0 mm
10:10 PM 8.0°F-13.3°C 5.7°F-14.6°C 90% 2.0 mph S3.2 kmh S 6.0 mph9.7 kmh 30.58 in1035.6 mb 0.00 in0.0 mm 0.00 in0.0 mm 0.00 in0.0 mm
10:20 PM 7.9°F-13.4°C 5.3°F-14.8°C 89% 1.0 mph SSW1.6 kmh SSW 5.0 mph8.0 kmh 30.59 in1035.9 mb 0.00 in0.0 mm 0.00 in0.0 mm 0.00 in0.0 mm
10:30 PM 7.9°F-13.4°C 5.6°F-14.7°C 90% 2.0 mph SSW3.2 kmh SSW 5.0 mph8.0 kmh 30.59 in1035.9 mb 0.00 in0.0 mm 0.00 in0.0 mm 0.00 in0.0 mm
10:40 PM 7.8°F-13.4°C 5.5°F-14.7°C 90% 2.0 mph SSW3.2 kmh SSW 3.0 mph4.8 kmh 30.60 in1036.2 mb 0.00 in0.0 mm 0.00 in0.0 mm 0.00 in0.0 mm
10:50 PM 7.7°F-13.5°C 5.4°F-14.8°C 90% 1.0 mph SSW1.6 kmh SSW 3.0 mph4.8 kmh 30.60 in1036.2 mb 0.00 in0.0 mm 0.00 in0.0 mm 0.00 in0.0 mm
11:00 PM 7.5°F-13.6°C 4.9°F-15.1°C 89% Calm Calm 2.0 mph3.2 kmh 30.60 in1036.2 mb 0.00 in0.0 mm 0.00 in0.0 mm 0.00 in0.0 mm
11:10 PM 7.4°F-13.7°C 4.8°F-15.1°C 89% Calm Calm 2.0 mph3.2 kmh 30.61 in1036.6 mb 0.00 in0.0 mm 0.00 in0.0 mm 0.00 in0.0 mm
11:20 PM 6.9°F-13.9°C 4.3°F-15.4°C 89% 1.0 mph SSW1.6 kmh SSW 4.0 mph6.4 kmh 30.61 in1036.6 mb 0.00 in0.0 mm 0.00 in0.0 mm 0.00 in0.0 mm
11:30 PM 6.5°F-14.2°C 3.9°F-15.6°C 89% 1.0 mph S1.6 kmh S 4.0 mph6.4 kmh 30.61 in1036.6 mb 0.00 in0.0 mm 0.00 in0.0 mm 0.00 in0.0 mm
11:40 PM 6.0°F-14.4°C 3.5°F-15.8°C 89% 1.0 mph SSE1.6 kmh SSE 5.0 mph8.0 kmh 30.62 in1036.9 mb 0.00 in0.0 mm 0.00 in0.0 mm 0.00 in0.0 mm
11:50 PM 5.6°F-14.7°C 3.1°F-16.1°C 89% 1.0 mph SSE1.6 kmh SSE 4.0 mph6.4 kmh 30.62 in1036.9 mb 0.00 in0.0 mm 0.00 in0.0 mm 0.00 in0.0 mm